createdAt,value
2022-11-24T00:01:03.608Z,2.13
2022-11-24T00:03:30.281Z,2.00
2022-11-24T00:05:57.440Z,2.23
2022-11-24T00:08:24.439Z,2.27
2022-11-24T00:10:51.437Z,1.80
2022-11-24T00:13:18.005Z,2.13
2022-11-24T00:15:45.130Z,2.03
2022-11-24T00:18:12.137Z,2.07
2022-11-24T00:20:38.692Z,2.13
2022-11-24T00:23:05.707Z,2.87
2022-11-24T00:25:32.311Z,2.40
2022-11-24T00:27:59.317Z,1.90
2022-11-24T00:30:26.407Z,1.33
2022-11-24T00:32:53.022Z,2.30
2022-11-24T00:35:20.067Z,2.33
2022-11-24T00:37:47.069Z,1.93
2022-11-24T00:40:14.071Z,1.50
2022-11-24T00:42:40.669Z,1.30
2022-11-24T00:45:13.835Z,2.03
2022-11-24T00:47:41.345Z,1.63
2022-11-24T00:50:08.673Z,1.90
2022-11-24T00:52:35.719Z,1.70
2022-11-24T00:55:02.736Z,2.00
2022-11-24T00:57:29.729Z,1.70
2022-11-24T00:59:56.797Z,2.53
2022-11-24T01:02:23.410Z,2.00
2022-11-24T01:04:50.041Z,2.70
2022-11-24T01:07:17.092Z,1.90
2022-11-24T01:09:45.508Z,2.83
2022-11-24T01:12:12.509Z,2.00
2022-11-24T01:14:39.545Z,2.10
2022-11-24T01:17:06.147Z,2.07
2022-11-24T01:19:32.942Z,1.87
2022-11-24T01:21:59.497Z,2.43
2022-11-24T01:24:26.105Z,2.73
2022-11-24T01:26:52.724Z,2.80
2022-11-24T01:29:19.892Z,2.00
2022-11-24T01:31:46.894Z,1.60
2022-11-24T01:34:13.904Z,1.60
2022-11-24T01:36:40.995Z,2.53
2022-11-24T01:39:07.998Z,1.77
2022-11-24T01:41:35.537Z,1.83
2022-11-24T01:44:24.609Z,2.27
2022-11-24T01:46:58.601Z,2.00
2022-11-24T01:49:33.825Z,2.13
2022-11-24T01:52:12.521Z,3.03
2022-11-24T01:54:45.186Z,2.30
2022-11-24T01:57:30.335Z,2.30
2022-11-24T02:00:01.889Z,2.57
2022-11-24T02:02:29.885Z,2.77
2022-11-24T02:05:05.826Z,3.17
2022-11-24T02:07:33.001Z,4.13
2022-11-24T02:10:03.505Z,2.77
2022-11-24T02:12:31.332Z,2.97
2022-11-24T02:14:59.152Z,2.77
2022-11-24T02:17:26.140Z,2.77
2022-11-24T02:19:59.049Z,2.73
2022-11-24T02:22:47.756Z,2.73
2022-11-24T02:25:31.240Z,3.03
2022-11-24T02:28:00.471Z,2.70
2022-11-24T02:30:27.247Z,2.80
2022-11-24T02:32:54.172Z,3.90
2022-11-24T02:35:21.494Z,3.13
2022-11-24T02:37:48.500Z,2.03
2022-11-24T02:40:16.631Z,2.50
2022-11-24T02:42:46.085Z,2.43
2022-11-24T02:45:14.798Z,2.00
2022-11-24T02:47:41.816Z,2.90
2022-11-24T02:50:08.707Z,3.00
2022-11-24T02:52:35.257Z,3.03
2022-11-24T02:55:02.272Z,3.23
2022-11-24T02:57:29.296Z,3.03
2022-11-24T02:59:56.476Z,3.40
2022-11-24T03:02:23.189Z,2.93
2022-11-24T03:04:50.231Z,3.20
2022-11-24T03:07:18.045Z,3.37
2022-11-24T03:09:44.699Z,3.27
2022-11-24T03:12:11.259Z,3.87
2022-11-24T03:14:37.856Z,2.97
2022-11-24T03:17:04.869Z,3.73
2022-11-24T03:19:32.949Z,2.90
2022-11-24T03:21:59.852Z,2.70
2022-11-24T03:24:26.958Z,2.50
2022-11-24T03:26:54.049Z,3.10
2022-11-24T03:29:20.843Z,2.87
2022-11-24T03:31:47.398Z,2.20
2022-11-24T03:34:14.091Z,2.30
2022-11-24T03:36:41.104Z,3.73
2022-11-24T03:39:07.779Z,2.80
2022-11-24T03:41:34.357Z,3.23
2022-11-24T03:44:01.004Z,4.10
2022-11-24T03:46:28.045Z,2.47
2022-11-24T03:48:55.042Z,2.90
2022-11-24T03:51:22.045Z,2.70
2022-11-24T03:53:48.621Z,2.83
2022-11-24T03:56:15.696Z,3.07
2022-11-24T03:58:42.264Z,2.80
2022-11-24T04:01:09.068Z,2.33
2022-11-24T04:03:36.077Z,3.17
2022-11-24T04:06:03.061Z,2.40
2022-11-24T04:08:30.046Z,3.07
2022-11-24T04:10:57.070Z,3.07
2022-11-24T04:13:25.772Z,1.97
2022-11-24T04:15:52.694Z,2.93
2022-11-24T04:18:19.776Z,2.60
2022-11-24T04:20:49.764Z,2.53
2022-11-24T04:23:16.968Z,2.87
2022-11-24T04:25:43.984Z,3.43
2022-11-24T04:28:10.878Z,2.30
2022-11-24T04:30:38.551Z,2.87
2022-11-24T04:33:05.140Z,3.20
2022-11-24T04:35:32.172Z,2.13
2022-11-24T04:38:02.779Z,2.27
2022-11-24T04:40:30.145Z,2.57
2022-11-24T04:42:57.173Z,2.77
2022-11-24T04:45:24.172Z,2.87
2022-11-24T04:47:50.888Z,3.03
2022-11-24T04:50:18.294Z,2.77
2022-11-24T04:52:45.068Z,3.33
2022-11-24T04:55:12.098Z,2.93
2022-11-24T04:57:39.117Z,2.37
2022-11-24T05:00:06.751Z,2.17
2022-11-24T05:02:33.764Z,2.20
2022-11-24T05:05:00.809Z,3.37
2022-11-24T05:07:28.069Z,3.20
2022-11-24T05:10:13.461Z,2.47
2022-11-24T05:12:40.061Z,2.77
2022-11-24T05:15:07.703Z,1.77
2022-11-24T05:17:37.661Z,2.50
2022-11-24T05:20:06.047Z,2.50
2022-11-24T05:22:32.707Z,3.63
2022-11-24T05:24:59.747Z,2.80
2022-11-24T05:27:26.379Z,2.07
2022-11-24T05:29:53.062Z,2.63
2022-11-24T05:32:20.175Z,2.67
2022-11-24T05:34:46.833Z,2.47
2022-11-24T05:37:13.450Z,2.90
2022-11-24T05:39:40.427Z,2.90
2022-11-24T05:42:26.516Z,2.53
2022-11-24T05:44:53.969Z,2.33
2022-11-24T05:47:21.045Z,2.77
2022-11-24T05:49:48.067Z,2.77
2022-11-24T05:52:15.541Z,3.27
2022-11-24T05:54:42.347Z,3.00
2022-11-24T05:57:09.018Z,3.20
2022-11-24T05:59:35.994Z,3.37
2022-11-24T06:02:03.394Z,2.80
2022-11-24T06:04:30.542Z,2.60
2022-11-24T06:06:57.628Z,2.23
2022-11-24T06:09:24.636Z,2.87
2022-11-24T06:11:51.212Z,2.83
2022-11-24T06:14:18.180Z,2.67
2022-11-24T06:16:45.358Z,2.40
2022-11-24T06:19:12.500Z,2.73
2022-11-24T06:21:39.648Z,2.93
2022-11-24T06:24:06.816Z,3.53
2022-11-24T06:26:34.161Z,3.00
2022-11-24T06:29:01.313Z,3.77
2022-11-24T06:31:28.341Z,8.00
2022-11-24T06:33:55.366Z,4.73
2022-11-24T06:36:22.008Z,3.87
2022-11-24T06:38:49.144Z,3.07
2022-11-24T06:41:16.561Z,3.50
2022-11-24T06:43:43.587Z,4.53
2022-11-24T06:46:10.964Z,5.73
2022-11-24T06:48:37.955Z,4.97
2022-11-24T06:51:07.099Z,3.53
2022-11-24T06:53:38.224Z,2.90
2022-11-24T06:56:15.596Z,3.40
2022-11-24T06:58:45.581Z,4.87
2022-11-24T07:01:24.118Z,3.87
2022-11-24T07:03:51.916Z,4.30
2022-11-24T07:06:20.099Z,3.33
2022-11-24T07:08:47.216Z,3.93
2022-11-24T07:11:16.915Z,3.40
2022-11-24T07:13:44.674Z,3.63
2022-11-24T07:16:23.754Z,4.40
2022-11-24T07:18:52.073Z,3.20
2022-11-24T07:21:20.218Z,3.53
2022-11-24T07:23:51.155Z,3.87
2022-11-24T07:26:18.726Z,3.30
2022-11-24T07:28:45.740Z,4.13
2022-11-24T07:31:14.981Z,2.90
2022-11-24T07:33:41.874Z,3.20
2022-11-24T07:36:09.188Z,2.40
2022-11-24T07:38:35.949Z,3.43
2022-11-24T07:41:07.294Z,3.20
2022-11-24T07:43:35.589Z,3.53
2022-11-24T07:46:02.500Z,2.53
2022-11-24T07:48:29.390Z,2.87
2022-11-24T07:50:59.382Z,2.33
2022-11-24T07:53:26.211Z,2.00
2022-11-24T07:55:55.151Z,2.90
2022-11-24T07:58:22.794Z,2.40
2022-11-24T08:00:49.504Z,3.27
2022-11-24T08:03:16.455Z,3.90
2022-11-24T08:06:07.634Z,2.87
2022-11-24T08:08:33.220Z,2.33
2022-11-24T08:11:07.199Z,2.70
2022-11-24T08:13:34.853Z,2.77
2022-11-24T08:16:12.617Z,2.90
2022-11-24T08:18:39.411Z,2.27
2022-11-24T08:21:06.672Z,3.50
2022-11-24T08:23:33.842Z,3.90
2022-11-24T08:26:09.101Z,3.17
2022-11-24T08:28:36.520Z,2.60
2022-11-24T08:31:11.522Z,2.60
2022-11-24T08:33:38.820Z,2.63
2022-11-24T08:36:06.665Z,4.00
2022-11-24T08:38:33.331Z,2.57
2022-11-24T08:41:07.982Z,3.00
2022-11-24T08:43:35.314Z,2.70
2022-11-24T08:46:14.295Z,2.67
2022-11-24T08:48:41.822Z,3.53
2022-11-24T08:51:11.767Z,6.03
2022-11-24T08:53:39.075Z,4.47
2022-11-24T08:56:06.206Z,3.70
2022-11-24T08:58:33.554Z,4.03
2022-11-24T09:01:15.096Z,4.90
2022-11-24T09:03:49.741Z,4.33
2022-11-24T09:06:23.440Z,3.47
2022-11-24T09:08:50.552Z,4.07
2022-11-24T09:11:17.922Z,4.40
2022-11-24T09:13:44.708Z,5.10
2022-11-24T09:16:14.267Z,3.13
2022-11-24T09:18:41.187Z,3.40
2022-11-24T09:21:09.661Z,4.30
2022-11-24T09:23:36.752Z,3.07
2022-11-24T09:26:08.477Z,2.57
2022-11-24T09:28:35.077Z,4.33
2022-11-24T09:31:07.953Z,2.67
2022-11-24T09:33:35.230Z,3.50
2022-11-24T09:36:02.041Z,4.17
2022-11-24T09:38:28.940Z,3.47
2022-11-24T09:40:56.315Z,3.80
2022-11-24T09:43:37.918Z,3.50
2022-11-24T09:46:26.210Z,3.60
2022-11-24T09:48:56.815Z,2.60
2022-11-24T09:51:28.738Z,3.47
2022-11-24T09:54:05.391Z,3.47
2022-11-24T09:56:35.475Z,3.07
2022-11-24T09:59:19.725Z,2.63
2022-11-24T10:01:48.016Z,2.50
2022-11-24T10:04:45.977Z,2.87
2022-11-24T10:07:22.045Z,2.80
2022-11-24T10:10:00.678Z,2.30
2022-11-24T10:13:12.855Z,2.50
2022-11-24T10:15:48.256Z,2.03
2022-11-24T10:18:23.033Z,1.90
2022-11-24T10:21:32.898Z,2.93
2022-11-24T10:24:27.900Z,2.60
2022-11-24T10:27:02.197Z,3.67
2022-11-24T10:29:42.456Z,4.93
2022-11-24T10:32:31.986Z,2.47
2022-11-24T10:35:12.231Z,3.37
2022-11-24T10:38:07.655Z,2.70
2022-11-24T10:40:56.539Z,2.33
2022-11-24T10:43:27.890Z,3.27
2022-11-24T10:45:59.778Z,9.40
2022-11-24T10:48:30.233Z,8.87
2022-11-24T10:51:33.438Z,5.07
2022-11-24T10:54:14.435Z,1.87
2022-11-24T10:56:42.566Z,1.87
2022-11-24T10:59:21.081Z,1.80
2022-11-24T11:01:47.775Z,2.20
2022-11-24T11:04:20.714Z,2.53
2022-11-24T11:06:47.725Z,4.53
2022-11-24T11:09:14.734Z,6.00
2022-11-24T11:11:42.843Z,3.17
2022-11-24T11:14:12.764Z,2.80
2022-11-24T11:16:45.852Z,3.80
2022-11-24T11:19:50.396Z,3.17
2022-11-24T11:22:26.668Z,3.17
2022-11-24T11:25:11.640Z,2.83
2022-11-24T11:27:39.826Z,3.30
2022-11-24T11:36:11.052Z,2.10
2022-11-24T11:38:39.637Z,2.90
2022-11-24T11:41:13.898Z,2.00
2022-11-24T11:43:41.508Z,2.20
2022-11-24T11:46:08.169Z,2.23
2022-11-24T11:48:43.115Z,2.30
2022-11-24T11:51:26.296Z,2.20
2022-11-24T11:54:21.154Z,2.10
2022-11-24T11:56:54.105Z,2.90
2022-11-24T11:59:44.017Z,3.00
2022-11-24T12:02:38.220Z,3.27
2022-11-24T12:05:42.380Z,2.97
2022-11-24T12:09:19.733Z,3.20
2022-11-24T12:12:02.757Z,2.60
2022-11-24T12:15:10.736Z,2.47
2022-11-24T12:17:44.247Z,2.80
2022-11-24T12:20:46.249Z,2.80
2022-11-24T12:23:36.384Z,2.80
2022-11-24T12:26:17.179Z,3.40
2022-11-24T12:28:55.408Z,3.33
2022-11-24T12:31:39.755Z,3.43
2022-11-24T12:34:20.015Z,2.63
2022-11-24T12:36:47.028Z,4.00
2022-11-24T12:39:13.991Z,3.20
2022-11-24T12:42:03.678Z,3.00
2022-11-24T12:44:58.050Z,2.90
2022-11-24T12:47:56.198Z,3.83
2022-11-24T12:50:27.333Z,3.13
2022-11-24T12:53:02.027Z,2.93
2022-11-24T12:55:32.077Z,2.97
2022-11-24T12:58:23.510Z,3.10
2022-11-24T13:01:16.549Z,3.33
2022-11-24T13:03:52.435Z,3.83
2022-11-24T13:06:35.464Z,3.93
2022-11-24T13:09:13.026Z,3.50
2022-11-24T13:11:50.147Z,4.03
2022-11-24T13:14:23.712Z,4.60
2022-11-24T13:19:47.617Z,5.03
2022-11-24T13:22:18.191Z,5.57
2022-11-24T13:24:45.461Z,6.63
2022-11-24T13:27:15.216Z,5.17
2022-11-24T13:29:43.763Z,5.10
2022-11-24T13:32:11.663Z,5.07
2022-11-24T13:34:42.539Z,4.23
2022-11-24T13:37:31.962Z,6.90
2022-11-24T13:40:11.497Z,4.63
2022-11-24T13:43:10.167Z,6.33
2022-11-24T13:45:40.079Z,5.10
2022-11-24T13:48:19.265Z,4.17
2022-11-24T13:50:55.833Z,4.67
2022-11-24T13:53:45.034Z,4.50
2022-11-24T13:56:17.428Z,5.43
2022-11-24T13:59:03.012Z,4.37
2022-11-24T14:01:35.764Z,5.90
2022-11-24T14:04:30.670Z,4.20
2022-11-24T14:07:07.789Z,4.03
2022-11-24T14:09:37.973Z,3.80
2022-11-24T14:12:07.397Z,4.77
2022-11-24T14:14:34.435Z,5.00
2022-11-24T14:17:12.906Z,4.27
2022-11-24T14:19:39.960Z,5.63
2022-11-24T14:22:11.986Z,9.67
2022-11-24T14:24:41.582Z,9.70
2022-11-24T14:27:16.829Z,7.77
2022-11-24T14:30:05.556Z,5.80
2022-11-24T14:32:32.165Z,4.93
2022-11-24T14:34:58.934Z,4.70
2022-11-24T14:37:25.648Z,5.47
2022-11-24T14:39:53.307Z,3.90
2022-11-24T14:42:25.495Z,4.70
2022-11-24T14:44:58.912Z,3.37
2022-11-24T14:47:36.277Z,3.97
2022-11-24T14:50:10.089Z,4.47
2022-11-24T14:52:41.764Z,4.13
2022-11-24T14:55:27.225Z,4.60
2022-11-24T14:57:54.009Z,3.87
2022-11-24T15:00:28.295Z,3.47
2022-11-24T15:03:01.029Z,3.63
2022-11-24T15:06:00.428Z,3.33
2022-11-24T15:08:33.307Z,3.50
2022-11-24T15:11:05.688Z,3.40
2022-11-24T15:13:38.120Z,3.40
2022-11-24T15:16:18.918Z,3.63
2022-11-24T15:18:56.747Z,4.53
2022-11-24T15:21:34.333Z,3.30
2022-11-24T15:24:05.883Z,4.53
2022-11-24T15:26:38.246Z,4.13
2022-11-24T15:29:06.841Z,3.87
2022-11-24T15:31:33.614Z,4.27
2022-11-24T15:34:00.349Z,4.47
2022-11-24T15:36:26.959Z,4.80
2022-11-24T15:38:54.117Z,3.90
2022-11-24T15:41:25.008Z,4.80
2022-11-24T15:43:58.735Z,5.87
2022-11-24T15:46:27.410Z,4.73
2022-11-24T15:48:54.990Z,5.03
2022-11-24T15:51:24.489Z,4.70
2022-11-24T15:54:00.620Z,4.10
2022-11-24T15:56:32.899Z,4.23
2022-11-24T15:59:00.628Z,4.33
2022-11-24T16:01:31.049Z,3.80
2022-11-24T16:03:58.030Z,3.87
2022-11-24T16:06:25.609Z,4.37
2022-11-24T16:08:55.752Z,4.13
2022-11-24T16:11:22.887Z,3.30
2022-11-24T16:13:53.218Z,4.60
2022-11-24T16:16:20.956Z,6.77
2022-11-24T16:18:47.692Z,4.93
2022-11-24T16:21:14.447Z,6.23
2022-11-24T16:23:41.625Z,5.40
2022-11-24T16:26:08.754Z,3.63
2022-11-24T16:28:35.553Z,3.50
2022-11-24T16:31:02.558Z,3.40
2022-11-24T16:33:30.578Z,2.80
2022-11-24T16:35:57.680Z,3.10
2022-11-24T16:38:24.813Z,2.93
2022-11-24T16:40:52.662Z,3.23
2022-11-24T16:43:19.827Z,3.40
2022-11-24T16:45:47.038Z,3.50
2022-11-24T16:48:13.675Z,3.57
2022-11-24T16:50:40.684Z,3.00
2022-11-24T16:53:07.816Z,3.17
2022-11-24T16:55:34.856Z,2.97
2022-11-24T16:58:03.996Z,3.83
2022-11-24T17:00:31.079Z,3.37
2022-11-24T17:02:57.685Z,2.97
2022-11-24T17:05:25.514Z,2.77
2022-11-24T17:07:52.097Z,3.00
2022-11-24T17:10:19.172Z,3.27
2022-11-24T17:12:46.157Z,2.80
2022-11-24T17:18:23.480Z,3.30
2022-11-24T17:20:46.805Z,4.10
2022-11-24T17:23:13.964Z,3.43
2022-11-24T17:25:41.051Z,3.47
2022-11-24T17:28:08.110Z,6.40
2022-11-24T17:30:36.846Z,6.47
2022-11-24T17:33:03.909Z,4.97
2022-11-24T17:35:30.959Z,4.90
2022-11-24T17:37:58.130Z,4.80
2022-11-24T17:40:29.286Z,3.93
2022-11-24T17:43:00.476Z,3.97
2022-11-24T17:45:28.546Z,3.30
2022-11-24T17:47:56.126Z,4.67
2022-11-24T17:50:26.103Z,3.47
2022-11-24T17:52:53.730Z,3.93
2022-11-24T17:55:20.869Z,4.10
2022-11-24T17:57:47.398Z,3.67
2022-11-24T18:00:14.708Z,4.30
2022-11-24T18:02:41.803Z,3.50
2022-11-24T18:05:09.092Z,3.83
2022-11-24T18:07:38.916Z,3.93
2022-11-24T18:10:06.140Z,4.37
2022-11-24T18:12:33.405Z,5.30
2022-11-24T18:15:00.057Z,4.37
2022-11-24T18:17:28.916Z,5.20
2022-11-24T18:19:55.482Z,4.33
2022-11-24T18:22:43.002Z,4.90
2022-11-24T18:25:09.581Z,4.70
2022-11-24T18:27:36.152Z,4.37
2022-11-24T18:30:03.767Z,4.37
2022-11-24T18:32:30.747Z,4.20
2022-11-24T18:34:57.731Z,3.53
2022-11-24T18:37:24.817Z,3.50
2022-11-24T18:39:52.172Z,3.70
2022-11-24T18:42:20.724Z,4.03
2022-11-24T18:44:51.119Z,4.33
2022-11-24T18:47:21.111Z,3.57
2022-11-24T18:49:48.108Z,4.13
2022-11-24T18:52:14.704Z,4.07
2022-11-24T18:54:41.759Z,3.60
2022-11-24T18:57:08.898Z,3.37
2022-11-24T18:59:36.685Z,3.43
2022-11-24T19:02:03.284Z,3.20
2022-11-24T19:04:30.043Z,3.60
2022-11-24T19:06:57.049Z,3.03
2022-11-24T19:09:25.376Z,3.43
2022-11-24T19:11:52.412Z,3.40
2022-11-24T19:14:19.710Z,3.60
2022-11-24T19:16:49.652Z,4.03
2022-11-24T19:19:17.175Z,3.63
2022-11-24T19:21:44.491Z,3.47
2022-11-24T19:24:12.981Z,3.37
2022-11-24T19:26:40.421Z,4.00
2022-11-24T19:29:07.729Z,3.27
2022-11-24T19:31:35.128Z,4.00
2022-11-24T19:34:02.938Z,4.07
2022-11-24T19:36:30.064Z,5.07
2022-11-24T19:38:58.110Z,3.70
2022-11-24T19:41:28.313Z,4.60
2022-11-24T19:43:56.283Z,4.60
2022-11-24T19:46:27.003Z,3.53
2022-11-24T19:48:55.381Z,4.77
2022-11-24T19:51:26.997Z,4.07
2022-11-24T19:53:54.306Z,3.53
2022-11-24T19:56:22.724Z,3.60
2022-11-24T19:58:50.211Z,3.73
2022-11-24T20:01:19.955Z,3.60
2022-11-24T20:03:51.405Z,3.00
2022-11-24T20:06:18.501Z,5.20
2022-11-24T20:08:45.132Z,3.87
2022-11-24T20:11:18.669Z,4.25
2022-11-24T20:13:46.369Z,3.73
2022-11-24T20:16:15.881Z,2.90
2022-11-24T20:18:44.906Z,3.60
2022-11-24T20:21:20.163Z,3.33
2022-11-24T20:23:56.788Z,3.50
2022-11-24T20:26:25.187Z,5.23
2022-11-24T20:28:54.409Z,3.63
2022-11-24T20:31:24.246Z,3.43
2022-11-24T20:33:51.367Z,3.90
2022-11-24T20:36:21.739Z,4.23
2022-11-24T20:38:49.752Z,4.27
2022-11-24T20:41:18.940Z,4.00
2022-11-24T20:43:46.301Z,3.63
2022-11-24T20:46:17.145Z,3.67
2022-11-24T20:48:44.227Z,3.40
2022-11-24T20:51:17.636Z,4.20
2022-11-24T20:53:44.437Z,3.80
2022-11-24T20:56:14.650Z,3.20
2022-11-24T20:58:43.597Z,3.10
2022-11-24T21:01:13.603Z,3.00
2022-11-24T21:03:43.518Z,3.40
2022-11-24T21:06:12.521Z,3.60
2022-11-24T21:08:41.231Z,3.80
2022-11-24T21:11:13.615Z,3.93
2022-11-24T21:13:42.375Z,3.50
2022-11-24T21:16:17.925Z,2.83
2022-11-24T21:18:46.311Z,2.70
2022-11-24T21:21:13.939Z,3.37
2022-11-24T21:23:41.120Z,5.23
2022-11-24T21:26:13.132Z,3.60
2022-11-24T21:28:43.889Z,3.80
2022-11-24T21:31:13.783Z,5.17
2022-11-24T21:33:42.525Z,3.50
2022-11-24T21:36:09.565Z,3.53
2022-11-24T21:38:36.897Z,4.53
2022-11-24T21:41:08.381Z,3.93
2022-11-24T21:43:35.453Z,4.33
2022-11-24T21:46:03.436Z,3.93
2022-11-24T21:48:31.956Z,4.67
2022-11-24T21:51:00.215Z,3.97
2022-11-24T21:53:29.920Z,4.70
2022-11-24T21:55:58.224Z,3.63
2022-11-24T21:58:25.737Z,3.70
2022-11-24T22:00:52.835Z,3.87
2022-11-24T22:03:20.881Z,4.60
2022-11-24T22:05:58.358Z,3.50
2022-11-24T22:08:26.086Z,4.23
2022-11-24T22:10:53.253Z,3.37
2022-11-24T22:13:20.022Z,3.90
2022-11-24T22:15:47.089Z,3.37
2022-11-24T22:18:14.097Z,4.00
2022-11-24T22:20:40.681Z,3.03
2022-11-24T22:23:07.742Z,3.93
2022-11-24T22:25:34.808Z,3.00
2022-11-24T22:28:01.799Z,3.60
2022-11-24T22:30:28.389Z,4.23
2022-11-24T22:32:55.554Z,3.50
2022-11-24T22:35:22.129Z,3.50
2022-11-24T22:37:48.702Z,3.23
2022-11-24T22:40:15.743Z,3.40
2022-11-24T22:42:42.404Z,3.70
2022-11-24T22:45:09.609Z,3.87
2022-11-24T22:47:36.586Z,3.97
2022-11-24T22:50:04.194Z,5.23
2022-11-24T22:52:31.097Z,4.33
2022-11-24T22:54:58.084Z,4.13
2022-11-24T22:57:25.071Z,4.60
2022-11-24T22:59:52.038Z,3.70
2022-11-24T23:02:19.023Z,2.93
2022-11-24T23:04:45.991Z,3.30
2022-11-24T23:07:12.637Z,3.17
2022-11-24T23:09:39.704Z,3.13
2022-11-24T23:12:06.793Z,2.97
2022-11-24T23:14:33.498Z,3.00
2022-11-24T23:17:00.660Z,3.13
2022-11-24T23:19:27.633Z,2.60
2022-11-24T23:21:54.625Z,3.60
2022-11-24T23:24:21.607Z,2.90
2022-11-24T23:26:48.721Z,3.00
2022-11-24T23:29:15.306Z,3.00
2022-11-24T23:31:42.047Z,2.47
2022-11-24T23:34:09.533Z,2.90
2022-11-24T23:36:36.640Z,3.23
2022-11-24T23:39:08.582Z,2.10
2022-11-24T23:41:35.691Z,2.57
2022-11-24T23:44:02.402Z,2.37
2022-11-24T23:46:29.548Z,2.53
2022-11-24T23:48:56.850Z,2.67
2022-11-24T23:51:26.104Z,2.70
2022-11-24T23:53:53.563Z,2.30
2022-11-24T23:56:25.759Z,2.50
2022-11-24T23:58:53.030Z,3.20
